Terminal Aerodrome Forecast
Issued by NWS

Home | Current Version | Previous Version | Text Only | Print | Product List | Glossary On
Versions: 1 2 3 4 5 6 7 8 9 10 11 12 13 14 15 16 17 18 19 20 21 22 23
000
FTUS41 KBTV 300825 AAA
TAFSLK
TAF AMD
KSLK 300825Z 3008/3106 23013G25KT P6SM OVC035
      TEMPO 3008/3010 6SM -SHSN OVC025
     FM301000 20014G21KT P6SM -SHSN OVC025
     FM301500 22017G27KT P6SM OVC025
     FM302000 25017G26KT P6SM -SHSN OVC035
     FM302200 25016G22KT 3SM -SHSN BR OVC035
     FM310000 26014G20KT 2SM -SHSN BR OVC025=

USA.gov is the U.S. government's official web portal to all federal, state and local government web resources and services.